sensor_id;sensor_type;location;lat;lon;timestamp;pressure;altitude;pressure_sealevel;temperature;humidity
70555;BME280;58104;52.744;15.242;2023-10-19T00:01:28;100096.02;;;19.79;38.49
70555;BME280;58104;52.744;15.242;2023-10-19T00:03:53;100087.98;;;19.75;38.49
70555;BME280;58104;52.744;15.242;2023-10-19T00:06:18;100080.81;;;19.71;38.55
70555;BME280;58104;52.744;15.242;2023-10-19T00:08:44;100080.55;;;19.71;38.61
70555;BME280;58104;52.744;15.242;2023-10-19T00:11:10;100076.99;;;19.77;38.66
70555;BME280;58104;52.744;15.242;2023-10-19T00:13:35;100075.08;;;19.70;38.69
70555;BME280;58104;52.744;15.242;2023-10-19T00:16:00;100066.33;;;19.77;38.73
70555;BME280;58104;52.744;15.242;2023-10-19T00:18:26;100069.21;;;19.72;38.76
70555;BME280;58104;52.744;15.242;2023-10-19T00:20:52;100056.66;;;19.72;38.87
70555;BME280;58104;52.744;15.242;2023-10-19T00:23:17;100051.86;;;19.78;38.93
70555;BME280;58104;52.744;15.242;2023-10-19T00:25:42;100037.23;;;19.74;39.01
70555;BME280;58104;52.744;15.242;2023-10-19T00:28:07;100030.14;;;19.81;39.13
70555;BME280;58104;52.744;15.242;2023-10-19T00:30:33;100029.90;;;19.75;39.31
70555;BME280;58104;52.744;15.242;2023-10-19T00:32:58;100029.00;;;19.75;39.37
70555;BME280;58104;52.744;15.242;2023-10-19T00:35:23;100024.81;;;19.76;39.55
70555;BME280;58104;52.744;15.242;2023-10-19T00:37:49;100027.76;;;19.78;39.65
70555;BME280;58104;52.744;15.242;2023-10-19T00:40:14;100018.74;;;19.77;39.88
70555;BME280;58104;52.744;15.242;2023-10-19T00:42:40;100018.90;;;19.78;40.00
70555;BME280;58104;52.744;15.242;2023-10-19T00:45:06;100014.34;;;19.85;40.25
70555;BME280;58104;52.744;15.242;2023-10-19T00:47:30;100010.96;;;19.77;40.51
70555;BME280;58104;52.744;15.242;2023-10-19T00:49:56;99999.65;;;19.78;40.58
70555;BME280;58104;52.744;15.242;2023-10-19T00:52:21;99987.66;;;19.79;40.74
70555;BME280;58104;52.744;15.242;2023-10-19T00:54:48;99984.49;;;19.80;40.89
70555;BME280;58104;52.744;15.242;2023-10-19T00:57:12;99981.32;;;19.84;41.06
70555;BME280;58104;52.744;15.242;2023-10-19T00:59:38;99978.87;;;19.86;41.15
70555;BME280;58104;52.744;15.242;2023-10-19T01:02:03;99972.58;;;19.81;41.32
70555;BME280;58104;52.744;15.242;2023-10-19T01:04:28;99968.49;;;19.82;41.59
70555;BME280;58104;52.744;15.242;2023-10-19T01:06:53;99968.76;;;19.86;41.78
70555;BME280;58104;52.744;15.242;2023-10-19T01:09:19;99962.46;;;19.84;41.88
70555;BME280;58104;52.744;15.242;2023-10-19T01:11:44;99958.89;;;19.88;42.28
70555;BME280;58104;52.744;15.242;2023-10-19T01:14:19;99955.84;;;19.88;42.27
70555;BME280;58104;52.744;15.242;2023-10-19T01:16:35;99952.33;;;19.89;42.28
70555;BME280;58104;52.744;15.242;2023-10-19T01:19:00;99946.58;;;19.85;42.25
70555;BME280;58104;52.744;15.242;2023-10-19T01:21:26;99942.53;;;19.82;42.33
70555;BME280;58104;52.744;15.242;2023-10-19T01:23:51;99933.24;;;19.89;42.30
70555;BME280;58104;52.744;15.242;2023-10-19T01:26:16;99924.12;;;19.82;42.32
70555;BME280;58104;52.744;15.242;2023-10-19T01:28:42;99913.12;;;19.78;42.23
70555;BME280;58104;52.744;15.242;2023-10-19T01:31:08;99904.66;;;19.84;42.28
70555;BME280;58104;52.744;15.242;2023-10-19T01:33:33;99902.77;;;19.86;42.32
70555;BME280;58104;52.744;15.242;2023-10-19T01:35:58;99889.25;;;19.85;42.39
70555;BME280;58104;52.744;15.242;2023-10-19T01:38:24;99881.58;;;19.85;42.44
70555;BME280;58104;52.744;15.242;2023-10-19T01:40:49;99874.76;;;19.91;42.50
70555;BME280;58104;52.744;15.242;2023-10-19T01:43:14;99874.00;;;19.87;42.50
70555;BME280;58104;52.744;15.242;2023-10-19T01:45:40;99873.27;;;19.85;42.57
70555;BME280;58104;52.744;15.242;2023-10-19T01:48:05;99867.97;;;19.91;42.63
70555;BME280;58104;52.744;15.242;2023-10-19T01:50:30;99863.95;;;19.92;42.72
70555;BME280;58104;52.744;15.242;2023-10-19T01:52:56;99867.08;;;19.85;42.87
70555;BME280;58104;52.744;15.242;2023-10-19T01:55:21;99867.01;;;19.86;43.03
70555;BME280;58104;52.744;15.242;2023-10-19T01:57:47;99861.81;;;19.87;43.13
70555;BME280;58104;52.744;15.242;2023-10-19T02:00:13;99857.57;;;19.88;43.27
70555;BME280;58104;52.744;15.242;2023-10-19T02:02:37;99851.67;;;19.89;43.57
70555;BME280;58104;52.744;15.242;2023-10-19T02:05:03;99847.00;;;19.90;43.74
70555;BME280;58104;52.744;15.242;2023-10-19T02:07:28;99844.14;;;19.89;43.84
70555;BME280;58104;52.744;15.242;2023-10-19T02:09:53;99843.74;;;19.91;43.81
70555;BME280;58104;52.744;15.242;2023-10-19T02:12:19;99846.83;;;19.91;43.80
70555;BME280;58104;52.744;15.242;2023-10-19T02:14:44;99836.74;;;19.89;43.85
70555;BME280;58104;52.744;15.242;2023-10-19T02:17:09;99833.11;;;19.91;43.80
70555;BME280;58104;52.744;15.242;2023-10-19T02:19:35;99826.28;;;19.91;43.83
70555;BME280;58104;52.744;15.242;2023-10-19T02:22:02;99832.85;;;19.98;43.75
70555;BME280;58104;52.744;15.242;2023-10-19T02:24:26;99831.75;;;19.90;43.87
70555;BME280;58104;52.744;15.242;2023-10-19T02:26:53;99822.61;;;19.91;43.90
70555;BME280;58104;52.744;15.242;2023-10-19T02:29:17;99819.76;;;19.84;43.85
70555;BME280;58104;52.744;15.242;2023-10-19T02:31:43;99814.46;;;19.93;43.82
70555;BME280;58104;52.744;15.242;2023-10-19T02:34:09;99805.91;;;19.97;43.76
70555;BME280;58104;52.744;15.242;2023-10-19T02:36:33;99804.08;;;19.92;43.77
70555;BME280;58104;52.744;15.242;2023-10-19T02:38:59;99800.90;;;19.98;43.97
70555;BME280;58104;52.744;15.242;2023-10-19T02:41:24;99791.98;;;19.93;43.98
70555;BME280;58104;52.744;15.242;2023-10-19T02:43:49;99793.41;;;19.92;43.97
70555;BME280;58104;52.744;15.242;2023-10-19T02:46:14;99789.30;;;19.93;43.93
70555;BME280;58104;52.744;15.242;2023-10-19T02:48:40;99790.28;;;19.94;43.85
70555;BME280;58104;52.744;15.242;2023-10-19T02:51:05;99788.84;;;19.99;43.82
70555;BME280;58104;52.744;15.242;2023-10-19T02:53:31;99786.85;;;19.94;43.87
70555;BME280;58104;52.744;15.242;2023-10-19T02:55:56;99780.25;;;19.92;43.85
70555;BME280;58104;52.744;15.242;2023-10-19T02:58:21;99776.83;;;19.94;43.78
70555;BME280;58104;52.744;15.242;2023-10-19T03:00:47;99779.45;;;19.93;43.73
70555;BME280;58104;52.744;15.242;2023-10-19T03:03:13;99780.35;;;19.92;43.67
70555;BME280;58104;52.744;15.242;2023-10-19T03:05:37;99779.70;;;19.93;43.65
70555;BME280;58104;52.744;15.242;2023-10-19T03:08:03;99781.85;;;19.92;43.64
70555;BME280;58104;52.744;15.242;2023-10-19T03:10:28;99781.44;;;19.92;43.58
70555;BME280;58104;52.744;15.242;2023-10-19T03:12:53;99782.44;;;19.91;43.63
70555;BME280;58104;52.744;15.242;2023-10-19T03:15:19;99775.45;;;19.91;43.60
70555;BME280;58104;52.744;15.242;2023-10-19T03:17:44;99771.26;;;19.92;43.59
70555;BME280;58104;52.744;15.242;2023-10-19T03:20:11;99764.42;;;19.92;43.58
70555;BME280;58104;52.744;15.242;2023-10-19T03:22:35;99765.83;;;19.83;43.63
70555;BME280;58104;52.744;15.242;2023-10-19T03:25:00;99758.45;;;19.94;43.75
70555;BME280;58104;52.744;15.242;2023-10-19T03:27:26;99755.85;;;19.99;43.79
70555;BME280;58104;52.744;15.242;2023-10-19T03:29:52;99753.61;;;20.03;43.74
70555;BME280;58104;52.744;15.242;2023-10-19T03:32:17;99751.56;;;19.91;43.74
70555;BME280;58104;52.744;15.242;2023-10-19T03:34:42;99744.87;;;19.92;43.72
70555;BME280;58104;52.744;15.242;2023-10-19T03:37:07;99734.23;;;20.03;43.74
70555;BME280;58104;52.744;15.242;2023-10-19T03:39:33;99727.84;;;19.92;43.70
70555;BME280;58104;52.744;15.242;2023-10-19T03:41:58;99724.75;;;19.91;43.90
70555;BME280;58104;52.744;15.242;2023-10-19T03:44:24;99717.41;;;19.93;43.90
70555;BME280;58104;52.744;15.242;2023-10-19T03:46:49;99719.44;;;19.93;44.00
70555;BME280;58104;52.744;15.242;2023-10-19T03:49:14;99722.68;;;19.92;44.02
70555;BME280;58104;52.744;15.242;2023-10-19T03:51:40;99719.50;;;19.92;44.04
70555;BME280;58104;52.744;15.242;2023-10-19T03:54:06;99716.98;;;19.92;44.10
70555;BME280;58104;52.744;15.242;2023-10-19T03:56:31;99711.85;;;19.92;44.13
70555;BME280;58104;52.744;15.242;2023-10-19T03:58:56;99706.12;;;19.92;44.21
70555;BME280;58104;52.744;15.242;2023-10-19T04:01:21;99702.11;;;19.91;44.28
70555;BME280;58104;52.744;15.242;2023-10-19T04:03:47;99694.41;;;19.93;44.35
70555;BME280;58104;52.744;15.242;2023-10-19T04:06:12;99696.19;;;19.94;44.53
70555;BME280;58104;52.744;15.242;2023-10-19T04:08:38;99691.34;;;19.93;44.57
70555;BME280;58104;52.744;15.242;2023-10-19T04:11:03;99685.77;;;19.91;44.63
70555;BME280;58104;52.744;15.242;2023-10-19T04:13:28;99682.89;;;19.91;44.65
70555;BME280;58104;52.744;15.242;2023-10-19T04:15:54;99682.58;;;19.87;44.70
70555;BME280;58104;52.744;15.242;2023-10-19T04:18:19;99684.54;;;19.92;44.60
70555;BME280;58104;52.744;15.242;2023-10-19T04:20:45;99676.87;;;19.90;44.69
70555;BME280;58104;52.744;15.242;2023-10-19T04:23:10;99672.29;;;19.97;44.70
70555;BME280;58104;52.744;15.242;2023-10-19T04:25:35;99666.60;;;19.95;44.63
70555;BME280;58104;52.744;15.242;2023-10-19T04:28:01;99666.64;;;19.94;44.65
70555;BME280;58104;52.744;15.242;2023-10-19T04:30:26;99664.68;;;19.95;44.79
70555;BME280;58104;52.744;15.242;2023-10-19T04:32:52;99661.41;;;19.95;44.97
70555;BME280;58104;52.744;15.242;2023-10-19T04:35:17;99655.43;;;19.96;44.95
70555;BME280;58104;52.744;15.242;2023-10-19T04:37:42;99647.10;;;20.02;44.94
70555;BME280;58104;52.744;15.242;2023-10-19T04:40:10;99646.51;;;19.95;44.93
70555;BME280;58104;52.744;15.242;2023-10-19T04:42:33;99653.36;;;19.96;45.09
70555;BME280;58104;52.744;15.242;2023-10-19T04:44:58;99650.83;;;19.95;45.10
70555;BME280;58104;52.744;15.242;2023-10-19T04:47:24;99646.52;;;19.92;45.15
70555;BME280;58104;52.744;15.242;2023-10-19T04:49:49;99651.67;;;19.93;45.09
70555;BME280;58104;52.744;15.242;2023-10-19T04:52:15;99648.17;;;20.01;45.08
70555;BME280;58104;52.744;15.242;2023-10-19T04:54:40;99645.99;;;19.98;45.11
70555;BME280;58104;52.744;15.242;2023-10-19T04:57:06;99645.82;;;20.15;45.49
70555;BME280;58104;52.744;15.242;2023-10-19T04:59:31;99642.05;;;20.21;45.48
70555;BME280;58104;52.744;15.242;2023-10-19T05:01:56;99651.89;;;20.33;45.31
70555;BME280;58104;52.744;15.242;2023-10-19T05:04:22;99649.98;;;20.25;45.06
70555;BME280;58104;52.744;15.242;2023-10-19T05:06:47;99647.55;;;20.31;44.99
70555;BME280;58104;52.744;15.242;2023-10-19T05:09:13;99646.79;;;20.34;44.90
70555;BME280;58104;52.744;15.242;2023-10-19T05:11:38;99644.77;;;20.29;44.84
70555;BME280;58104;52.744;15.242;2023-10-19T05:14:03;99640.22;;;20.23;44.77
70555;BME280;58104;52.744;15.242;2023-10-19T05:16:29;99636.01;;;20.18;44.72
70555;BME280;58104;52.744;15.242;2023-10-19T05:18:54;99638.93;;;20.18;44.74
70555;BME280;58104;52.744;15.242;2023-10-19T05:21:19;99641.37;;;20.27;44.74
70555;BME280;58104;52.744;15.242;2023-10-19T05:23:45;99645.48;;;20.17;45.05
70555;BME280;58104;52.744;15.242;2023-10-19T05:26:10;99648.36;;;20.02;41.47
70555;BME280;58104;52.744;15.242;2023-10-19T05:28:36;99641.58;;;19.60;40.49
70555;BME280;58104;52.744;15.242;2023-10-19T05:31:01;99642.76;;;19.28;40.34
70555;BME280;58104;52.744;15.242;2023-10-19T05:33:27;99653.02;;;19.26;39.64
70555;BME280;58104;52.744;15.242;2023-10-19T05:35:52;99649.98;;;19.14;39.16
70555;BME280;58104;52.744;15.242;2023-10-19T05:38:17;99648.77;;;18.90;39.25
70555;BME280;58104;52.744;15.242;2023-10-19T05:40:42;99648.75;;;18.85;38.75
70555;BME280;58104;52.744;15.242;2023-10-19T05:43:08;99647.04;;;18.89;38.90
70555;BME280;58104;52.744;15.242;2023-10-19T05:45:33;99645.59;;;18.76;38.41
70555;BME280;58104;52.744;15.242;2023-10-19T05:47:59;99638.60;;;18.61;38.36
70555;BME280;58104;52.744;15.242;2023-10-19T05:50:24;99643.30;;;18.57;37.80
70555;BME280;58104;52.744;15.242;2023-10-19T05:52:50;99641.72;;;18.51;38.18
70555;BME280;58104;52.744;15.242;2023-10-19T05:55:15;99637.90;;;18.54;37.33
70555;BME280;58104;52.744;15.242;2023-10-19T05:57:41;99642.78;;;18.51;37.17
70555;BME280;58104;52.744;15.242;2023-10-19T06:00:08;99643.33;;;18.44;36.96
70555;BME280;58104;52.744;15.242;2023-10-19T06:02:32;99644.50;;;18.33;37.19
70555;BME280;58104;52.744;15.242;2023-10-19T06:04:58;99632.97;;;18.28;36.53
70555;BME280;58104;52.744;15.242;2023-10-19T06:07:23;99632.54;;;18.32;38.52
70555;BME280;58104;52.744;15.242;2023-10-19T06:09:48;99625.89;;;18.28;38.31
70555;BME280;58104;52.744;15.242;2023-10-19T06:12:14;99616.42;;;18.36;37.68
70555;BME280;58104;52.744;15.242;2023-10-19T06:14:39;99617.56;;;18.21;37.37
70555;BME280;58104;52.744;15.242;2023-10-19T06:17:04;99615.25;;;18.28;37.78
70555;BME280;58104;52.744;15.242;2023-10-19T06:19:30;99612.94;;;18.24;38.52
70555;BME280;58104;52.744;15.242;2023-10-19T06:21:56;99612.07;;;17.72;38.74
70555;BME280;58104;52.744;15.242;2023-10-19T06:24:21;99609.82;;;17.46;40.18
70555;BME280;58104;52.744;15.242;2023-10-19T06:26:46;99609.50;;;17.63;39.89
70555;BME280;58104;52.744;15.242;2023-10-19T06:29:12;99605.98;;;17.19;40.10
70555;BME280;58104;52.744;15.242;2023-10-19T06:31:38;99605.07;;;17.26;39.96
70555;BME280;58104;52.744;15.242;2023-10-19T06:34:03;99600.78;;;17.22;39.56
70555;BME280;58104;52.744;15.242;2023-10-19T06:36:29;99597.07;;;17.34;39.33
70555;BME280;58104;52.744;15.242;2023-10-19T06:38:54;99587.11;;;17.24;39.62
70555;BME280;58104;52.744;15.242;2023-10-19T06:41:19;99591.34;;;17.13;38.91
70555;BME280;58104;52.744;15.242;2023-10-19T06:43:45;99587.10;;;17.33;39.33
70555;BME280;58104;52.744;15.242;2023-10-19T06:46:10;99580.16;;;17.05;39.12
70555;BME280;58104;52.744;15.242;2023-10-19T06:48:36;99578.91;;;16.84;38.68
70555;BME280;58104;52.744;15.242;2023-10-19T06:51:02;99583.80;;;16.92;38.84
70555;BME280;58104;52.744;15.242;2023-10-19T06:53:28;99583.94;;;17.23;38.19
70555;BME280;58104;52.744;15.242;2023-10-19T06:55:53;99575.36;;;17.51;39.65
70555;BME280;58104;52.744;15.242;2023-10-19T06:58:19;99583.95;;;18.08;38.79
70555;BME280;58104;52.744;15.242;2023-10-19T07:00:44;99576.03;;;18.44;38.43
70555;BME280;58104;52.744;15.242;2023-10-19T07:03:10;99573.50;;;18.65;38.31
70555;BME280;58104;52.744;15.242;2023-10-19T07:05:35;99566.53;;;18.75;38.40
70555;BME280;58104;52.744;15.242;2023-10-19T07:08:01;99568.54;;;18.95;38.36
70555;BME280;58104;52.744;15.242;2023-10-19T07:10:26;99567.83;;;19.15;38.57
70555;BME280;58104;52.744;15.242;2023-10-19T07:12:52;99556.04;;;19.27;38.76
70555;BME280;58104;52.744;15.242;2023-10-19T07:15:17;99556.72;;;19.36;38.80
70555;BME280;58104;52.744;15.242;2023-10-19T07:17:43;99556.93;;;19.46;38.85
70555;BME280;58104;52.744;15.242;2023-10-19T07:20:08;99551.33;;;19.57;38.87
70555;BME280;58104;52.744;15.242;2023-10-19T07:22:33;99550.32;;;19.66;38.93
70555;BME280;58104;52.744;15.242;2023-10-19T07:24:59;99548.02;;;19.80;38.94
70555;BME280;58104;52.744;15.242;2023-10-19T07:27:24;99544.79;;;19.93;38.96
70555;BME280;58104;52.744;15.242;2023-10-19T07:29:49;99544.52;;;19.94;38.96
70555;BME280;58104;52.744;15.242;2023-10-19T07:32:15;99544.09;;;19.97;39.14
70555;BME280;58104;52.744;15.242;2023-10-19T07:34:41;99539.72;;;20.07;39.19
70555;BME280;58104;52.744;15.242;2023-10-19T07:37:06;99538.52;;;20.11;39.33
70555;BME280;58104;52.744;15.242;2023-10-19T07:39:32;99535.29;;;20.14;39.20
70555;BME280;58104;52.744;15.242;2023-10-19T07:41:57;99538.14;;;20.20;39.16
70555;BME280;58104;52.744;15.242;2023-10-19T07:44:23;99540.81;;;20.39;39.19
70555;BME280;58104;52.744;15.242;2023-10-19T07:46:49;99538.73;;;20.32;39.36
70555;BME280;58104;52.744;15.242;2023-10-19T07:49:14;99537.36;;;20.32;39.40
70555;BME280;58104;52.744;15.242;2023-10-19T07:51:39;99539.36;;;20.31;39.51
70555;BME280;58104;52.744;15.242;2023-10-19T07:54:05;99532.43;;;20.36;39.68
70555;BME280;58104;52.744;15.242;2023-10-19T07:56:30;99525.01;;;20.28;39.85
70555;BME280;58104;52.744;15.242;2023-10-19T07:58:55;99525.16;;;20.34;39.86
70555;BME280;58104;52.744;15.242;2023-10-19T08:01:20;99522.94;;;20.43;39.85
70555;BME280;58104;52.744;15.242;2023-10-19T08:03:46;99513.44;;;20.36;39.99
70555;BME280;58104;52.744;15.242;2023-10-19T08:06:11;99511.57;;;20.46;39.93
70555;BME280;58104;52.744;15.242;2023-10-19T08:08:37;99514.20;;;20.46;39.99
70555;BME280;58104;52.744;15.242;2023-10-19T08:11:03;99520.82;;;20.47;40.07
70555;BME280;58104;52.744;15.242;2023-10-19T08:13:28;99511.90;;;20.52;40.01
70555;BME280;58104;52.744;15.242;2023-10-19T08:15:54;99507.66;;;20.54;40.03
70555;BME280;58104;52.744;15.242;2023-10-19T08:18:19;99511.62;;;20.61;39.96
70555;BME280;58104;52.744;15.242;2023-10-19T08:20:45;99515.61;;;20.58;40.13
70555;BME280;58104;52.744;15.242;2023-10-19T08:23:11;99511.68;;;20.57;40.25
70555;BME280;58104;52.744;15.242;2023-10-19T08:25:36;99506.72;;;20.45;39.97
70555;BME280;58104;52.744;15.242;2023-10-19T08:28:01;99505.60;;;20.31;40.31
70555;BME280;58104;52.744;15.242;2023-10-19T08:30:26;99501.81;;;20.16;40.61
70555;BME280;58104;52.744;15.242;2023-10-19T08:32:52;99495.99;;;20.02;40.68
70555;BME280;58104;52.744;15.242;2023-10-19T08:35:17;99489.01;;;19.64;38.71
70555;BME280;58104;52.744;15.242;2023-10-19T08:37:42;99482.77;;;19.32;39.16
70555;BME280;58104;52.744;15.242;2023-10-19T08:40:11;99470.69;;;19.29;38.58
70555;BME280;58104;52.744;15.242;2023-10-19T08:42:33;99463.50;;;19.70;38.83
70555;BME280;58104;52.744;15.242;2023-10-19T08:44:58;99465.45;;;19.73;39.36
70555;BME280;58104;52.744;15.242;2023-10-19T08:47:24;99462.99;;;19.65;39.40
70555;BME280;58104;52.744;15.242;2023-10-19T08:49:49;99461.85;;;19.72;39.60
70555;BME280;58104;52.744;15.242;2023-10-19T08:52:15;99458.67;;;19.79;39.42
70555;BME280;58104;52.744;15.242;2023-10-19T08:54:40;99456.08;;;19.68;39.34
70555;BME280;58104;52.744;15.242;2023-10-19T08:57:05;99455.96;;;19.74;39.19
70555;BME280;58104;52.744;15.242;2023-10-19T08:59:30;99461.05;;;19.94;38.85
70555;BME280;58104;52.744;15.242;2023-10-19T09:02:00;99457.25;;;20.19;38.81
70555;BME280;58104;52.744;15.242;2023-10-19T09:04:21;99450.25;;;20.36;38.71
70555;BME280;58104;52.744;15.242;2023-10-19T09:06:46;99445.69;;;20.32;38.86
70555;BME280;58104;52.744;15.242;2023-10-19T09:09:12;99453.84;;;20.32;38.74
70555;BME280;58104;52.744;15.242;2023-10-19T09:11:36;99464.31;;;20.26;38.84
70555;BME280;58104;52.744;15.242;2023-10-19T09:14:02;99467.37;;;20.20;38.97
70555;BME280;58104;52.744;15.242;2023-10-19T09:16:27;99479.13;;;20.36;38.71
70555;BME280;58104;52.744;15.242;2023-10-19T09:18:52;99481.03;;;20.50;38.70
70555;BME280;58104;52.744;15.242;2023-10-19T09:21:18;99482.36;;;20.50;38.84
70555;BME280;58104;52.744;15.242;2023-10-19T09:23:43;99488.99;;;20.37;38.77
70555;BME280;58104;52.744;15.242;2023-10-19T09:26:08;99485.67;;;20.25;38.99
70555;BME280;58104;52.744;15.242;2023-10-19T09:28:35;99485.68;;;20.22;39.05
70555;BME280;58104;52.744;15.242;2023-10-19T09:31:00;99479.55;;;20.52;38.74
70555;BME280;58104;52.744;15.242;2023-10-19T09:33:24;99473.66;;;20.66;38.57
70555;BME280;58104;52.744;15.242;2023-10-19T09:35:50;99474.64;;;20.73;38.79
70555;BME280;58104;52.744;15.242;2023-10-19T09:38:16;99476.48;;;20.57;38.73
70555;BME280;58104;52.744;15.242;2023-10-19T09:40:41;99476.89;;;20.53;38.81
70555;BME280;58104;52.744;15.242;2023-10-19T09:43:15;99481.37;;;20.35;39.06
70555;BME280;58104;52.744;15.242;2023-10-19T09:45:32;99476.34;;;20.59;38.72
70555;BME280;58104;52.744;15.242;2023-10-19T09:48:00;99472.28;;;20.72;38.86
70555;BME280;58104;52.744;15.242;2023-10-19T09:50:22;99471.67;;;20.86;39.13
70555;BME280;58104;52.744;15.242;2023-10-19T09:52:47;99471.72;;;20.98;38.98
70555;BME280;58104;52.744;15.242;2023-10-19T09:55:19;99471.79;;;21.16;38.98
70555;BME280;58104;52.744;15.242;2023-10-19T09:57:44;99461.93;;;21.09;38.95
70555;BME280;58104;52.744;15.242;2023-10-19T10:00:05;99466.15;;;21.24;38.86
70555;BME280;58104;52.744;15.242;2023-10-19T10:02:29;99454.07;;;21.37;38.99
70555;BME280;58104;52.744;15.242;2023-10-19T10:04:54;99443.63;;;21.37;39.01
70555;BME280;58104;52.744;15.242;2023-10-19T10:07:20;99444.89;;;21.35;39.11
70555;BME280;58104;52.744;15.242;2023-10-19T10:09:45;99448.60;;;21.43;39.02
70555;BME280;58104;52.744;15.242;2023-10-19T10:12:17;99446.09;;;21.53;38.98
70555;BME280;58104;52.744;15.242;2023-10-19T10:14:36;99442.38;;;21.39;39.31
70555;BME280;58104;52.744;15.242;2023-10-19T10:17:01;99439.58;;;21.54;39.39
70555;BME280;58104;52.744;15.242;2023-10-19T10:19:26;99438.78;;;21.54;39.43
70555;BME280;58104;52.744;15.242;2023-10-19T10:22:03;99442.08;;;21.64;39.43
70555;BME280;58104;52.744;15.242;2023-10-19T10:24:16;99436.31;;;21.54;39.44
70555;BME280;58104;52.744;15.242;2023-10-19T10:29:10;99423.93;;;21.73;39.32
70555;BME280;58104;52.744;15.242;2023-10-19T10:31:34;99421.94;;;21.63;39.44
70555;BME280;58104;52.744;15.242;2023-10-19T10:33:58;99416.66;;;21.39;37.90
70555;BME280;58104;52.744;15.242;2023-10-19T10:36:23;99401.09;;;20.32;37.31
70555;BME280;58104;52.744;15.242;2023-10-19T10:38:49;99399.04;;;19.83;38.24
70555;BME280;58104;52.744;15.242;2023-10-19T10:41:19;99402.36;;;19.67;38.64
70555;BME280;58104;52.744;15.242;2023-10-19T10:43:50;99403.76;;;19.32;37.89
70555;BME280;58104;52.744;15.242;2023-10-19T10:46:05;99404.95;;;18.91;37.23
70555;BME280;58104;52.744;15.242;2023-10-19T10:48:29;99405.08;;;18.85;36.04
70555;BME280;58104;52.744;15.242;2023-10-19T10:50:54;99406.91;;;18.92;37.59
70555;BME280;58104;52.744;15.242;2023-10-19T10:53:23;99401.84;;;19.03;37.05
70555;BME280;58104;52.744;15.242;2023-10-19T10:55:45;99398.53;;;18.97;36.86
70555;BME280;58104;52.744;15.242;2023-10-19T10:58:15;99397.62;;;18.97;36.57
70555;BME280;58104;52.744;15.242;2023-10-19T11:00:42;99393.05;;;19.31;36.35
70555;BME280;58104;52.744;15.242;2023-10-19T11:03:04;99386.14;;;19.16;36.04
70555;BME280;58104;52.744;15.242;2023-10-19T11:05:27;99378.74;;;19.18;35.50
70555;BME280;58104;52.744;15.242;2023-10-19T11:08:04;99370.09;;;19.39;35.01
70555;BME280;58104;52.744;15.242;2023-10-19T11:10:26;99370.88;;;18.98;34.79
70555;BME280;58104;52.744;15.242;2023-10-19T11:12:43;99376.22;;;18.86;36.13
70555;BME280;58104;52.744;15.242;2023-10-19T11:15:09;99366.12;;;18.92;35.73
70555;BME280;58104;52.744;15.242;2023-10-19T11:17:43;99357.10;;;18.90;36.89
70555;BME280;58104;52.744;15.242;2023-10-19T11:20:00;99347.69;;;18.82;35.53
70555;BME280;58104;52.744;15.242;2023-10-19T11:22:26;99348.46;;;18.64;35.72
70555;BME280;58104;52.744;15.242;2023-10-19T11:24:51;99349.07;;;18.45;36.48
70555;BME280;58104;52.744;15.242;2023-10-19T11:27:22;99346.25;;;18.64;36.13
70555;BME280;58104;52.744;15.242;2023-10-19T11:32:08;99348.64;;;18.67;35.30
70555;BME280;58104;52.744;15.242;2023-10-19T11:34:38;99349.05;;;19.26;37.34
70555;BME280;58104;52.744;15.242;2023-10-19T11:36:59;99346.21;;;19.96;36.49
70555;BME280;58104;52.744;15.242;2023-10-19T11:39:24;99346.77;;;20.59;35.70
70555;BME280;58104;52.744;15.242;2023-10-19T11:41:49;99333.41;;;20.54;35.74
70555;BME280;58104;52.744;15.242;2023-10-19T11:44:14;99331.31;;;20.44;35.79
70555;BME280;58104;52.744;15.242;2023-10-19T11:46:40;99334.01;;;20.52;35.75
70555;BME280;58104;52.744;15.242;2023-10-19T11:49:06;99339.64;;;20.68;35.46
70555;BME280;58104;52.744;15.242;2023-10-19T11:51:32;99339.47;;;20.73;35.33
70555;BME280;58104;52.744;15.242;2023-10-19T11:53:57;99339.23;;;20.87;35.18
70555;BME280;58104;52.744;15.242;2023-10-19T11:56:22;99332.29;;;21.07;35.00
70555;BME280;58104;52.744;15.242;2023-10-19T11:58:47;99330.60;;;21.11;35.56
70555;BME280;58104;52.744;15.242;2023-10-19T12:01:14;99333.08;;;21.48;35.16
70555;BME280;58104;52.744;15.242;2023-10-19T12:03:39;99335.59;;;21.71;35.01
70555;BME280;58104;52.744;15.242;2023-10-19T12:06:04;99330.12;;;21.83;35.07
70555;BME280;58104;52.744;15.242;2023-10-19T12:08:29;99333.38;;;21.72;35.21
70555;BME280;58104;52.744;15.242;2023-10-19T12:10:55;99332.19;;;21.90;35.29
70555;BME280;58104;52.744;15.242;2023-10-19T12:13:21;99331.08;;;21.97;35.35
70555;BME280;58104;52.744;15.242;2023-10-19T12:15:46;99323.08;;;20.64;34.89
70555;BME280;58104;52.744;15.242;2023-10-19T12:18:12;99316.34;;;20.44;35.83
70555;BME280;58104;52.744;15.242;2023-10-19T12:20:37;99320.89;;;21.07;35.57
70555;BME280;58104;52.744;15.242;2023-10-19T12:23:02;99312.92;;;21.37;35.60
70555;BME280;58104;52.744;15.242;2023-10-19T12:25:27;99308.17;;;21.56;35.67
70555;BME280;58104;52.744;15.242;2023-10-19T12:27:53;99302.50;;;21.72;35.66
70555;BME280;58104;52.744;15.242;2023-10-19T12:30:18;99292.99;;;21.78;35.61
70555;BME280;58104;52.744;15.242;2023-10-19T12:32:44;99288.48;;;21.92;35.64
70555;BME280;58104;52.744;15.242;2023-10-19T12:35:09;99292.23;;;21.95;35.70
70555;BME280;58104;52.744;15.242;2023-10-19T12:37:35;99300.66;;;21.93;35.78
70555;BME280;58104;52.744;15.242;2023-10-19T12:40:01;99294.67;;;22.18;35.66
70555;BME280;58104;52.744;15.242;2023-10-19T12:42:28;99290.92;;;22.00;35.87
70555;BME280;58104;52.744;15.242;2023-10-19T12:44:53;99285.72;;;21.86;36.20